Port Colborne, Canada
Current Conditions -  °F | °C
As of 8:53 PM on Saturday 22 Nov 2014 (Local Time) from KIAG Reporting Station
Light Rain Light Rain  
Wind Chill: 38°   Ceiling: 2300
Heat Index: 45°   Visibility: 10mi
Dew Point: 40°   Wind: 17mph
Humidity: 82%   Direction: 230°SW
Pressure: 29.96"   Gusts: 25mph
Location:  42.89°N, 79.25°W
Report Text: KIAG 230153Z 23015G22KT 10SM -RA SCT019 OVC023 07/04 A2996 RMK AO2 RAB07 SLP158 P0001 T00720044 $
Loading
Personal Weather Stations






























Interactive Weather Map New forecast layout! Learn more

10-Day Weather Forecast

Advertisements
Track Severe Weather on mobile